createdAt,value
2018-06-03T00:01:03.190Z,13.80
2018-06-03T00:06:01.329Z,13.80
2018-06-03T00:08:30.852Z,13.70
2018-06-03T00:11:00.267Z,13.80
2018-06-03T00:13:29.872Z,13.70
2018-06-03T00:15:59.276Z,13.70
2018-06-03T00:18:29.474Z,13.70
2018-06-03T00:21:10.252Z,13.70
2018-06-03T00:23:40.186Z,13.70
2018-06-03T00:26:09.647Z,13.60
2018-06-03T00:28:39.030Z,13.60
2018-06-03T00:31:08.706Z,13.60
2018-06-03T00:33:38.308Z,13.60
2018-06-03T00:36:18.958Z,13.60
2018-06-03T00:41:17.464Z,13.60
2018-06-03T00:43:47.008Z,13.50
2018-06-03T00:46:16.541Z,13.50
2018-06-03T00:48:45.908Z,13.50
2018-06-03T00:51:15.392Z,13.50
2018-06-03T00:53:47.109Z,13.50
2018-06-03T00:57:19.666Z,13.50
2018-06-03T00:59:49.293Z,13.60
2018-06-03T01:02:18.522Z,13.50
2018-06-03T01:04:47.728Z,13.40
2018-06-03T01:07:19.579Z,13.40
2018-06-03T01:09:49.593Z,13.40
2018-06-03T01:12:19.167Z,13.40
2018-06-03T01:14:48.610Z,13.30
2018-06-03T01:17:18.441Z,13.30
2018-06-03T01:19:47.808Z,13.30
2018-06-03T01:22:17.238Z,13.30
2018-06-03T01:27:16.008Z,13.20
2018-06-03T01:29:45.595Z,13.20
2018-06-03T01:32:16.119Z,13.10
2018-06-03T01:34:46.220Z,13.10
2018-06-03T01:37:15.812Z,13.10
2018-06-03T01:39:45.245Z,13.20
2018-06-03T01:42:14.517Z,13.20
2018-06-03T01:44:44.017Z,13.20
2018-06-03T01:47:13.482Z,13.20
2018-06-03T01:49:43.084Z,13.10
2018-06-03T01:52:13.255Z,13.10
2018-06-03T01:54:42.758Z,13.10
2018-06-03T01:57:12.308Z,13.10
2018-06-03T01:59:41.986Z,13.10
2018-06-03T02:02:13.375Z,13.10
2018-06-03T02:07:16.999Z,13.00
2018-06-03T02:09:46.558Z,12.90
2018-06-03T02:12:16.352Z,12.90
2018-06-03T02:14:45.783Z,12.90
2018-06-03T02:17:15.420Z,12.80
2018-06-03T02:19:46.592Z,12.80
2018-06-03T02:22:16.019Z,12.80
2018-06-03T02:24:46.500Z,12.90
2018-06-03T02:27:16.441Z,12.90
2018-06-03T02:29:46.495Z,12.90
2018-06-03T02:32:17.424Z,12.90
2018-06-03T02:34:46.979Z,13.00
2018-06-03T02:37:16.298Z,13.10
2018-06-03T02:39:47.145Z,13.10
2018-06-03T02:42:16.657Z,13.00
2018-06-03T02:44:45.999Z,13.00
2018-06-03T02:47:15.539Z,12.90
2018-06-03T02:49:45.128Z,12.90
2018-06-03T02:54:44.438Z,13.00
2018-06-03T02:57:14.010Z,13.00
2018-06-03T02:59:43.773Z,13.00
2018-06-03T03:02:13.205Z,12.90
2018-06-03T03:04:42.672Z,13.00
2018-06-03T03:07:12.376Z,12.90
2018-06-03T03:09:42.499Z,12.90
2018-06-03T03:12:12.072Z,13.00
2018-06-03T03:14:41.701Z,13.10
2018-06-03T03:17:11.311Z,13.10
2018-06-03T03:19:40.740Z,13.00
2018-06-03T03:22:10.223Z,13.00
2018-06-03T03:24:39.611Z,13.00
2018-06-03T03:27:09.534Z,12.90
2018-06-03T03:29:40.015Z,12.90
2018-06-03T03:32:09.722Z,12.80
2018-06-03T03:34:39.283Z,12.80
2018-06-03T03:37:08.960Z,12.80
2018-06-03T03:39:38.761Z,12.80
2018-06-03T03:42:08.516Z,12.80
2018-06-03T03:44:38.249Z,12.90
2018-06-03T03:47:08.008Z,13.00
2018-06-03T03:49:37.958Z,13.10
2018-06-03T03:52:07.230Z,13.00
2018-06-03T03:54:37.045Z,12.90
2018-06-03T03:57:06.444Z,12.90
2018-06-03T03:59:36.395Z,12.90
2018-06-03T04:02:06.306Z,12.90
2018-06-03T04:04:35.717Z,12.90
2018-06-03T04:07:05.955Z,12.90
2018-06-03T04:09:35.727Z,12.90
2018-06-03T04:12:05.205Z,13.00
2018-06-03T04:14:35.515Z,13.00
2018-06-03T04:17:05.419Z,13.10
2018-06-03T04:19:37.085Z,13.10
2018-06-03T04:22:06.698Z,13.20
2018-06-03T04:24:36.318Z,13.20
2018-06-03T04:27:05.657Z,13.20
2018-06-03T04:29:35.659Z,13.30
2018-06-03T04:32:05.827Z,13.40
2018-06-03T04:34:36.013Z,13.50
2018-06-03T04:37:05.801Z,13.60
2018-06-03T04:39:37.123Z,13.60
2018-06-03T04:44:36.035Z,13.70
2018-06-03T04:47:05.924Z,13.80
2018-06-03T04:49:35.511Z,13.90
2018-06-03T04:52:05.255Z,14.00
2018-06-03T04:54:35.387Z,14.20
2018-06-03T05:00:06.401Z,14.40
2018-06-03T05:02:35.971Z,14.50
2018-06-03T05:05:05.741Z,14.60
2018-06-03T05:07:35.771Z,14.80
2018-06-03T05:10:06.181Z,14.80
2018-06-03T05:12:35.989Z,14.90
2018-06-03T05:15:05.840Z,15.00
2018-06-03T05:17:36.457Z,15.10
2018-06-03T05:20:06.912Z,15.20
2018-06-03T05:22:36.554Z,15.30
2018-06-03T05:25:06.344Z,15.40
2018-06-03T05:27:37.162Z,15.60
2018-06-03T05:30:08.654Z,15.70
2018-06-03T05:32:40.074Z,15.80
2018-06-03T05:35:11.980Z,15.90
2018-06-03T05:37:42.442Z,16.00
2018-06-03T05:40:12.896Z,16.00
2018-06-03T05:42:44.539Z,16.10
2018-06-03T05:45:14.088Z,16.20
2018-06-03T05:47:45.052Z,16.30
2018-06-03T05:53:18.996Z,16.50
2018-06-03T05:55:51.016Z,16.60
2018-06-03T05:58:21.194Z,16.70
2018-06-03T06:00:50.989Z,16.80
2018-06-03T06:03:20.652Z,16.80
2018-06-03T06:05:50.456Z,16.90
2018-06-03T06:08:20.156Z,17.00
2018-06-03T06:10:49.879Z,17.00
2018-06-03T06:13:19.545Z,17.20
2018-06-03T06:15:49.251Z,17.20
2018-06-03T06:18:20.059Z,17.30
2018-06-03T06:20:49.702Z,17.50
2018-06-03T06:23:19.301Z,17.60
2018-06-03T06:25:48.867Z,17.80
2018-06-03T06:28:19.301Z,17.80
2018-06-03T06:30:49.017Z,18.00
2018-06-03T06:33:18.610Z,18.10
2018-06-03T06:35:48.469Z,18.20
2018-06-03T06:38:18.360Z,18.20
2018-06-03T06:40:48.940Z,18.30
2018-06-03T06:43:19.328Z,18.40
2018-06-03T06:45:50.439Z,18.30
2018-06-03T06:48:20.146Z,18.50
2018-06-03T06:50:49.969Z,18.50
2018-06-03T06:53:19.419Z,18.50
2018-06-03T06:55:48.724Z,18.50
2018-06-03T06:58:18.239Z,18.60
2018-06-03T07:00:48.486Z,18.70
2018-06-03T07:03:19.269Z,18.90
2018-06-03T07:05:49.796Z,19.00
2018-06-03T07:08:19.845Z,19.10
2018-06-03T07:10:49.304Z,19.20
2018-06-03T07:13:20.198Z,19.20
2018-06-03T07:15:50.856Z,19.40
2018-06-03T07:18:20.314Z,19.40
2018-06-03T07:20:49.915Z,19.40
2018-06-03T07:23:21.833Z,19.30
2018-06-03T07:25:52.046Z,19.20
2018-06-03T07:28:22.381Z,19.20
2018-06-03T07:30:51.894Z,19.20
2018-06-03T07:33:22.095Z,19.30
2018-06-03T07:35:51.548Z,19.50
2018-06-03T07:38:21.393Z,19.60
2018-06-03T07:40:51.631Z,19.80
2018-06-03T07:43:21.555Z,19.90
2018-06-03T07:45:51.013Z,20.00
2018-06-03T07:48:20.390Z,20.20
2018-06-03T07:50:50.144Z,20.30
2018-06-03T07:53:19.568Z,20.40
2018-06-03T07:55:49.276Z,20.60
2018-06-03T07:58:19.233Z,20.60
2018-06-03T08:00:48.668Z,20.60
2018-06-03T08:03:18.814Z,20.70
2018-06-03T08:08:17.711Z,20.90
2018-06-03T08:10:47.309Z,20.90
2018-06-03T08:13:17.066Z,20.90
2018-06-03T08:15:46.737Z,20.90
2018-06-03T08:18:16.868Z,20.80
2018-06-03T08:20:46.309Z,21.00
2018-06-03T08:23:16.419Z,21.00
2018-06-03T08:25:46.228Z,21.10
2018-06-03T08:28:15.776Z,21.30
2018-06-03T08:30:45.776Z,21.30
2018-06-03T08:33:16.345Z,21.60
2018-06-03T08:35:46.783Z,21.80
2018-06-03T08:38:17.111Z,21.90
2018-06-03T08:40:47.751Z,22.10
2018-06-03T08:43:17.687Z,22.20
2018-06-03T08:45:47.816Z,22.50
2018-06-03T08:48:17.494Z,22.60
2018-06-03T08:50:48.340Z,22.70
2018-06-03T08:53:18.214Z,22.70
2018-06-03T08:55:47.686Z,22.90
2018-06-03T08:58:17.453Z,22.70
2018-06-03T09:00:47.487Z,22.70
2018-06-03T09:03:17.487Z,22.90
2018-06-03T09:05:47.403Z,23.20
2018-06-03T09:08:17.259Z,23.40
2018-06-03T09:10:48.730Z,23.40
2018-06-03T09:13:18.403Z,23.50
2018-06-03T09:15:48.144Z,23.40
2018-06-03T09:18:17.829Z,23.40
2018-06-03T09:20:47.535Z,23.50
2018-06-03T09:23:17.975Z,23.50
2018-06-03T09:25:49.109Z,23.50
2018-06-03T09:28:18.975Z,23.50
2018-06-03T09:30:52.882Z,23.50
2018-06-03T09:33:23.417Z,23.50
2018-06-03T09:35:53.545Z,23.50
2018-06-03T09:40:52.535Z,23.80
2018-06-03T09:43:22.769Z,23.40
2018-06-03T09:45:52.767Z,23.80
2018-06-03T09:48:23.078Z,24.00
2018-06-03T09:50:53.257Z,24.10
2018-06-03T09:53:23.092Z,23.60
2018-06-03T09:56:04.651Z,23.40
2018-06-03T09:58:48.798Z,23.30
2018-06-03T10:01:20.663Z,23.50
2018-06-03T10:03:50.473Z,24.00
2018-06-03T10:08:50.097Z,24.60
2018-06-03T10:11:19.786Z,24.60
2018-06-03T10:13:49.315Z,24.90
2018-06-03T10:16:19.589Z,25.00
2018-06-03T10:18:49.047Z,25.00
2018-06-03T10:21:19.331Z,24.90
2018-06-03T10:23:49.409Z,24.80
2018-06-03T10:26:18.910Z,24.50
2018-06-03T10:28:48.479Z,25.00
2018-06-03T10:31:27.669Z,24.90
2018-06-03T10:33:57.316Z,24.20
2018-06-03T10:36:28.243Z,23.60
2018-06-03T10:38:57.966Z,23.40
2018-06-03T10:41:29.006Z,23.80
2018-06-03T10:43:59.085Z,24.30
2018-06-03T10:46:31.588Z,23.80
2018-06-03T10:49:01.205Z,24.10
2018-06-03T10:51:30.505Z,24.40
2018-06-03T10:54:00.462Z,24.80
2018-06-03T10:56:31.295Z,25.50
2018-06-03T10:59:00.948Z,26.00
2018-06-03T11:01:30.334Z,26.20
2018-06-03T11:03:59.778Z,25.80
2018-06-03T11:06:29.391Z,26.00
2018-06-03T11:08:58.966Z,25.60
2018-06-03T11:11:28.296Z,25.30
2018-06-03T11:13:57.817Z,24.60
2018-06-03T11:16:27.572Z,24.20
2018-06-03T11:18:56.988Z,23.90
2018-06-03T11:21:26.586Z,23.80
2018-06-03T11:23:56.895Z,23.70
2018-06-03T11:26:26.607Z,23.80
2018-06-03T11:28:56.191Z,24.30
2018-06-03T11:31:25.698Z,24.80
2018-06-03T11:33:55.411Z,24.90
2018-06-03T11:36:24.995Z,25.50
2018-06-03T11:38:54.341Z,26.30
2018-06-03T11:41:24.027Z,26.10
2018-06-03T11:43:53.711Z,26.00
2018-06-03T11:46:23.431Z,26.20
2018-06-03T11:48:53.044Z,26.60
2018-06-03T11:51:22.592Z,26.80
2018-06-03T11:53:53.331Z,26.70
2018-06-03T11:56:23.137Z,27.00
2018-06-03T11:58:53.713Z,25.90
2018-06-03T12:01:23.589Z,25.80
2018-06-03T12:03:53.841Z,25.80
2018-06-03T12:06:23.651Z,25.40
2018-06-03T12:08:53.499Z,24.90
2018-06-03T12:11:24.262Z,24.50
2018-06-03T12:13:53.769Z,24.70
2018-06-03T12:16:23.630Z,25.00
2018-06-03T12:18:52.897Z,25.00
2018-06-03T12:21:22.572Z,25.10
2018-06-03T12:23:52.115Z,25.50
2018-06-03T12:26:22.644Z,26.10
2018-06-03T12:28:52.397Z,26.60
2018-06-03T12:31:22.335Z,27.30
2018-06-03T12:33:51.928Z,27.80
2018-06-03T12:36:21.737Z,27.40
2018-06-03T12:38:51.208Z,27.40
2018-06-03T12:41:21.384Z,27.50
2018-06-03T12:43:50.889Z,27.60
2018-06-03T12:46:20.368Z,28.20
2018-06-03T12:48:49.809Z,28.20
2018-06-03T12:51:19.236Z,28.40
2018-06-03T12:53:48.688Z,27.10
2018-06-03T12:56:18.499Z,26.40
2018-06-03T12:58:48.664Z,26.30
2018-06-03T13:01:19.066Z,25.60
2018-06-03T13:03:49.241Z,24.90
2018-06-03T13:06:19.312Z,24.50
2018-06-03T13:08:50.005Z,24.40
2018-06-03T13:11:19.466Z,24.80
2018-06-03T13:13:49.264Z,25.00
2018-06-03T13:16:18.808Z,25.30
2018-06-03T13:18:48.569Z,25.60
2018-06-03T13:21:18.892Z,25.60
2018-06-03T13:23:48.956Z,25.80
2018-06-03T13:26:19.691Z,26.20
2018-06-03T13:28:49.188Z,25.90
2018-06-03T13:33:48.648Z,26.10
2018-06-03T13:36:18.296Z,25.80
2018-06-03T13:38:48.527Z,25.60
2018-06-03T13:41:18.239Z,25.60
2018-06-03T13:43:47.730Z,24.90
2018-06-03T13:46:17.153Z,25.20
2018-06-03T13:48:47.789Z,25.50
2018-06-03T13:51:17.343Z,25.10
2018-06-03T13:53:46.810Z,25.00
2018-06-03T13:56:16.863Z,25.10
2018-06-03T13:58:46.621Z,25.40
2018-06-03T14:01:16.402Z,25.10
2018-06-03T14:03:46.889Z,25.10
2018-06-03T14:06:16.785Z,25.00
2018-06-03T14:08:47.565Z,25.40
2018-06-03T14:11:17.340Z,25.50
2018-06-03T14:13:46.587Z,25.50
2018-06-03T14:16:16.915Z,25.80
2018-06-03T14:18:46.647Z,26.00
2018-06-03T14:21:16.561Z,25.80
2018-06-03T14:23:45.949Z,25.50
2018-06-03T14:26:15.870Z,25.00
2018-06-03T14:28:45.622Z,25.30
2018-06-03T14:31:15.082Z,25.60
2018-06-03T14:33:44.783Z,25.70
2018-06-03T14:36:14.754Z,25.00
2018-06-03T14:38:44.635Z,25.00
2018-06-03T14:41:14.312Z,24.90
2018-06-03T14:43:43.851Z,24.90
2018-06-03T14:46:13.948Z,25.00
2018-06-03T14:48:44.115Z,24.80
2018-06-03T14:51:16.324Z,24.90
2018-06-03T14:53:47.516Z,24.90
2018-06-03T14:56:16.827Z,25.10
2018-06-03T14:58:46.956Z,25.50
2018-06-03T15:01:16.915Z,25.70
2018-06-03T15:03:46.665Z,25.50
2018-06-03T15:06:16.020Z,25.70
2018-06-03T15:08:45.427Z,25.50
2018-06-03T15:11:15.053Z,25.70
2018-06-03T15:13:44.442Z,25.50
2018-06-03T15:16:14.681Z,25.30
2018-06-03T15:18:44.329Z,25.50
2018-06-03T15:23:44.257Z,25.60
2018-06-03T15:26:13.675Z,25.70
2018-06-03T15:28:42.917Z,25.80
2018-06-03T15:31:12.296Z,25.40
2018-06-03T15:33:41.776Z,25.00
2018-06-03T15:36:11.877Z,24.70
2018-06-03T15:38:41.657Z,24.80
2018-06-03T15:41:11.265Z,24.60
2018-06-03T15:43:40.711Z,24.40
2018-06-03T15:46:11.306Z,24.70
2018-06-03T15:48:41.284Z,24.40
2018-06-03T15:51:10.994Z,24.20
2018-06-03T15:53:42.826Z,24.20
2018-06-03T15:56:12.340Z,24.50
2018-06-03T15:58:41.706Z,25.10
2018-06-03T16:01:11.317Z,25.30
2018-06-03T16:03:41.117Z,24.90
2018-06-03T16:06:10.665Z,25.00
2018-06-03T16:08:40.595Z,25.30
2018-06-03T16:13:40.140Z,25.50
2018-06-03T16:16:10.650Z,25.40
2018-06-03T16:18:41.272Z,25.10
2018-06-03T16:21:10.973Z,24.90
2018-06-03T16:23:40.863Z,24.70
2018-06-03T16:26:10.192Z,25.10
2018-06-03T16:28:39.970Z,25.20
2018-06-03T16:31:09.500Z,25.20
2018-06-03T16:33:38.953Z,24.70
2018-06-03T16:36:08.425Z,24.80
2018-06-03T16:38:38.434Z,24.80
2018-06-03T16:41:07.840Z,24.60
2018-06-03T16:43:37.690Z,24.70
2018-06-03T16:46:07.524Z,24.50
2018-06-03T16:48:37.270Z,24.50
2018-06-03T16:51:06.903Z,24.30
2018-06-03T16:53:36.636Z,24.10
2018-06-03T16:56:06.459Z,24.00
2018-06-03T16:58:36.709Z,23.90
2018-06-03T17:01:06.983Z,24.10
2018-06-03T17:03:36.578Z,23.90
2018-06-03T17:06:05.994Z,23.80
2018-06-03T17:08:35.548Z,23.50
2018-06-03T17:11:04.911Z,23.20
2018-06-03T17:13:34.323Z,23.00
2018-06-03T17:18:32.746Z,22.80
2018-06-03T17:21:03.424Z,22.70
2018-06-03T17:23:32.954Z,22.60
2018-06-03T17:26:02.662Z,22.40
2018-06-03T17:28:31.977Z,22.30
2018-06-03T17:31:02.573Z,22.10
2018-06-03T17:33:32.591Z,22.20
2018-06-03T17:36:03.009Z,22.20
2018-06-03T17:38:34.093Z,22.20
2018-06-03T17:41:06.672Z,22.00
2018-06-03T17:43:36.253Z,21.80
2018-06-03T17:46:05.999Z,21.80
2018-06-03T17:51:05.271Z,21.60
2018-06-03T17:53:35.335Z,21.50
2018-06-03T17:56:04.775Z,21.50
2018-06-03T17:58:35.001Z,21.40
2018-06-03T18:01:04.778Z,21.40
2018-06-03T18:03:34.305Z,21.30
2018-06-03T18:06:05.368Z,21.30
2018-06-03T18:08:36.085Z,21.20
2018-06-03T18:11:08.576Z,21.10
2018-06-03T18:13:38.770Z,21.00
2018-06-03T18:16:08.617Z,20.80
2018-06-03T18:18:39.629Z,20.70
2018-06-03T18:21:10.659Z,20.60
2018-06-03T18:23:40.196Z,20.50
2018-06-03T18:26:10.760Z,20.40
2018-06-03T18:28:41.274Z,20.30
2018-06-03T18:31:11.543Z,20.30
2018-06-03T18:36:11.336Z,20.30
2018-06-03T18:38:40.901Z,20.20
2018-06-03T18:41:10.381Z,20.20
2018-06-03T18:43:41.729Z,20.20
2018-06-03T18:46:11.520Z,20.20
2018-06-03T18:48:44.236Z,20.10
2018-06-03T18:51:15.034Z,20.00
2018-06-03T18:53:44.729Z,19.90
2018-06-03T18:56:14.449Z,19.90
2018-06-03T18:58:43.921Z,19.90
2018-06-03T19:01:15.096Z,19.70
2018-06-03T19:03:44.670Z,19.70
2018-06-03T19:06:15.142Z,19.60
2018-06-03T19:08:45.054Z,19.60
2018-06-03T19:11:14.505Z,19.50
2018-06-03T19:13:45.992Z,19.50
2018-06-03T19:16:15.871Z,19.40
2018-06-03T19:18:45.850Z,19.30
2018-06-03T19:21:15.585Z,19.30
2018-06-03T19:23:46.193Z,19.20
2018-06-03T19:26:16.055Z,19.10
2018-06-03T19:28:46.177Z,19.10
2018-06-03T19:33:45.530Z,18.90
2018-06-03T19:36:15.773Z,18.80
2018-06-03T19:38:46.926Z,18.80
2018-06-03T19:41:17.648Z,18.60
2018-06-03T19:43:47.769Z,18.60
2018-06-03T19:46:17.428Z,18.60
2018-06-03T19:48:48.652Z,18.40
2018-06-03T19:51:18.363Z,18.40
2018-06-03T19:53:48.232Z,18.20
2018-06-03T19:56:18.892Z,18.20
2018-06-03T19:58:49.089Z,18.10
2018-06-03T20:01:18.711Z,18.00
2018-06-03T20:03:48.886Z,17.90
2018-06-03T20:06:19.285Z,17.80
2018-06-03T20:08:49.727Z,17.80
2018-06-03T20:11:19.982Z,17.70
2018-06-03T20:16:20.393Z,17.60
2018-06-03T20:18:50.817Z,17.60
2018-06-03T20:21:20.536Z,17.50
2018-06-03T20:23:50.015Z,17.50
2018-06-03T20:26:19.974Z,17.40
2018-06-03T20:28:49.244Z,17.30
2018-06-03T20:31:18.763Z,17.30
2018-06-03T20:33:49.124Z,17.30
2018-06-03T20:36:18.699Z,17.20
2018-06-03T20:38:48.268Z,17.20
2018-06-03T20:41:17.845Z,17.20
2018-06-03T20:43:47.299Z,17.10
2018-06-03T20:46:16.988Z,17.10
2018-06-03T20:48:46.480Z,17.00
2018-06-03T20:51:15.912Z,17.00
2018-06-03T20:53:45.640Z,16.90
2018-06-03T20:56:16.096Z,16.90
2018-06-03T20:58:46.950Z,16.80
2018-06-03T21:01:16.653Z,16.80
2018-06-03T21:03:46.284Z,16.70
2018-06-03T21:06:15.962Z,16.70
2018-06-03T21:08:46.197Z,16.60
2018-06-03T21:11:15.657Z,16.60
2018-06-03T21:13:46.616Z,16.60
2018-06-03T21:16:16.577Z,16.50
2018-06-03T21:18:47.075Z,16.50
2018-06-03T21:21:17.225Z,16.40
2018-06-03T21:23:46.845Z,16.40
2018-06-03T21:26:17.833Z,16.30
2018-06-03T21:28:50.687Z,16.30
2018-06-03T21:31:20.399Z,16.30
2018-06-03T21:33:49.912Z,16.20
2018-06-03T21:36:19.700Z,16.20
2018-06-03T21:38:49.195Z,16.10
2018-06-03T21:41:18.598Z,16.20
2018-06-03T21:43:48.064Z,16.10
2018-06-03T21:46:18.501Z,16.10
2018-06-03T21:48:47.925Z,16.00
2018-06-03T21:51:18.441Z,16.00
2018-06-03T21:53:48.311Z,16.00
2018-06-03T21:56:20.351Z,15.90
2018-06-03T21:58:50.659Z,15.90
2018-06-03T22:01:20.088Z,15.80
2018-06-03T22:03:50.220Z,15.80
2018-06-03T22:06:19.758Z,15.80
2018-06-03T22:08:49.960Z,15.70
2018-06-03T22:11:19.406Z,15.70
2018-06-03T22:13:49.411Z,15.60
2018-06-03T22:16:19.764Z,15.60
2018-06-03T22:18:50.240Z,15.50
2018-06-03T22:21:19.925Z,15.50
2018-06-03T22:23:49.424Z,15.50
2018-06-03T22:26:19.710Z,15.50
2018-06-03T22:31:18.454Z,15.40
2018-06-03T22:33:48.595Z,15.40
2018-06-03T22:36:18.818Z,15.40
2018-06-03T22:38:48.190Z,15.30
2018-06-03T22:41:19.054Z,15.30
2018-06-03T22:43:48.615Z,15.30
2018-06-03T22:46:18.335Z,15.30
2018-06-03T22:48:48.016Z,15.20
2018-06-03T22:51:18.499Z,15.20
2018-06-03T22:53:47.958Z,15.20
2018-06-03T22:56:18.140Z,15.10
2018-06-03T22:58:48.197Z,15.10
2018-06-03T23:01:17.717Z,15.10
2018-06-03T23:03:47.372Z,15.10
2018-06-03T23:06:17.051Z,15.10
2018-06-03T23:08:46.790Z,15.00
2018-06-03T23:11:16.750Z,15.00
2018-06-03T23:13:46.563Z,15.00
2018-06-03T23:16:16.194Z,14.90
2018-06-03T23:18:45.537Z,14.90
2018-06-03T23:21:15.152Z,14.90
2018-06-03T23:23:44.667Z,14.90
2018-06-03T23:26:13.987Z,14.80
2018-06-03T23:28:43.459Z,14.80
2018-06-03T23:31:12.946Z,14.80
2018-06-03T23:33:43.508Z,14.80
2018-06-03T23:36:13.008Z,14.80
2018-06-03T23:38:43.035Z,14.80
2018-06-03T23:43:42.351Z,14.70
2018-06-03T23:46:11.943Z,14.70
2018-06-03T23:48:41.534Z,14.70
2018-06-03T23:51:11.848Z,14.70
2018-06-03T23:53:41.247Z,14.70
2018-06-03T23:56:11.641Z,14.70
2018-06-03T23:58:42.173Z,14.60
